sensor_id;sensor_type;location;lat;lon;timestamp;pressure;altitude;pressure_sealevel;temperature;humidity
9474;BME280;8865;47.636;7.692;2023-04-08T04:10:59;98637.78;;;3.58;100.00
9474;BME280;8865;47.636;7.692;2023-04-08T04:13:26;98642.97;;;3.58;100.00
9474;BME280;8865;47.636;7.692;2023-04-08T04:15:55;98651.56;;;3.58;100.00
9474;BME280;8865;47.636;7.692;2023-04-08T04:18:22;98648.22;;;3.56;100.00
9474;BME280;8865;47.636;7.692;2023-04-08T04:20:48;98644.78;;;3.56;100.00
9474;BME280;8865;47.636;7.692;2023-04-08T04:23:14;98650.97;;;3.53;100.00
9474;BME280;8865;47.636;7.692;2023-04-08T04:25:40;98651.72;;;3.55;100.00
9474;BME280;8865;47.636;7.692;2023-04-08T04:28:07;98651.66;;;3.57;100.00
9474;BME280;8865;47.636;7.692;2023-04-08T04:30:38;98650.59;;;3.61;100.00
9474;BME280;8865;47.636;7.692;2023-04-08T04:33:05;98653.84;;;3.65;100.00
9474;BME280;8865;47.636;7.692;2023-04-08T04:35:31;98651.09;;;3.68;100.00
9474;BME280;8865;47.636;7.692;2023-04-08T04:37:57;98644.22;;;3.67;100.00
9474;BME280;8865;47.636;7.692;2023-04-08T04:40:23;98646.81;;;3.67;100.00
9474;BME280;8865;47.636;7.692;2023-04-08T04:42:49;98652.00;;;3.67;100.00
9474;BME280;8865;47.636;7.692;2023-04-08T04:45:16;98652.88;;;3.67;100.00
9474;BME280;8865;47.636;7.692;2023-04-08T04:47:41;98655.44;;;3.67;100.00
9474;BME280;8865;47.636;7.692;2023-04-08T04:50:08;98657.19;;;3.67;100.00
9474;BME280;8865;47.636;7.692;2023-04-08T04:52:35;98660.56;;;3.69;100.00
9474;BME280;8865;47.636;7.692;2023-04-08T04:55:01;98665.13;;;3.64;100.00
9474;BME280;8865;47.636;7.692;2023-04-08T04:57:27;98661.47;;;3.68;100.00
9474;BME280;8865;47.636;7.692;2023-04-08T04:59:53;98665.56;;;3.72;100.00
9474;BME280;8865;47.636;7.692;2023-04-08T05:02:19;98657.56;;;3.77;100.00
9474;BME280;8865;47.636;7.692;2023-04-08T05:04:45;98660.91;;;3.79;100.00
9474;BME280;8865;47.636;7.692;2023-04-08T05:07:11;98676.38;;;3.80;100.00
9474;BME280;8865;47.636;7.692;2023-04-08T05:09:37;98669.44;;;3.81;100.00
9474;BME280;8865;47.636;7.692;2023-04-08T05:12:03;98670.38;;;3.80;100.00
9474;BME280;8865;47.636;7.692;2023-04-08T05:14:29;98675.38;;;3.83;100.00
9474;BME280;8865;47.636;7.692;2023-04-08T05:16:55;98674.22;;;3.88;100.00
9474;BME280;8865;47.636;7.692;2023-04-08T05:19:22;98676.47;;;3.94;100.00
9474;BME280;8865;47.636;7.692;2023-04-08T05:21:48;98686.69;;;3.98;100.00
9474;BME280;8865;47.636;7.692;2023-04-08T05:24:14;98685.47;;;4.05;100.00
9474;BME280;8865;47.636;7.692;2023-04-08T05:26:40;98688.47;;;4.13;100.00
9474;BME280;8865;47.636;7.692;2023-04-08T05:29:06;98684.66;;;4.20;100.00
9474;BME280;8865;47.636;7.692;2023-04-08T05:31:32;98687.16;;;4.22;100.00
9474;BME280;8865;47.636;7.692;2023-04-08T05:33:58;98680.16;;;4.24;100.00
9474;BME280;8865;47.636;7.692;2023-04-08T05:36:24;98686.75;;;4.29;100.00
9474;BME280;8865;47.636;7.692;2023-04-08T05:38:51;98687.44;;;4.33;100.00
9474;BME280;8865;47.636;7.692;2023-04-08T05:41:17;98687.84;;;4.41;100.00
9474;BME280;8865;47.636;7.692;2023-04-08T05:43:43;98690.94;;;4.48;100.00
9474;BME280;8865;47.636;7.692;2023-04-08T05:46:09;98691.38;;;4.56;100.00
9474;BME280;8865;47.636;7.692;2023-04-08T05:48:36;98696.41;;;4.59;100.00
9474;BME280;8865;47.636;7.692;2023-04-08T05:51:02;98684.09;;;4.63;100.00
9474;BME280;8865;47.636;7.692;2023-04-08T05:53:29;98684.56;;;4.70;100.00
9474;BME280;8865;47.636;7.692;2023-04-08T05:55:55;98692.03;;;4.76;100.00
9474;BME280;8865;47.636;7.692;2023-04-08T05:58:21;98691.50;;;4.85;100.00
9474;BME280;8865;47.636;7.692;2023-04-08T06:00:46;98695.44;;;4.92;100.00
9474;BME280;8865;47.636;7.692;2023-04-08T06:03:13;98689.91;;;4.98;100.00
9474;BME280;8865;47.636;7.692;2023-04-08T06:05:38;98702.72;;;5.01;100.00
9474;BME280;8865;47.636;7.692;2023-04-08T06:08:05;98703.03;;;5.11;100.00
9474;BME280;8865;47.636;7.692;2023-04-08T06:10:31;98705.97;;;5.21;100.00
9474;BME280;8865;47.636;7.692;2023-04-08T06:12:57;98699.41;;;5.30;100.00
9474;BME280;8865;47.636;7.692;2023-04-08T06:15:23;98699.63;;;5.41;100.00
9474;BME280;8865;47.636;7.692;2023-04-08T06:17:50;98698.34;;;5.48;100.00
9474;BME280;8865;47.636;7.692;2023-04-08T06:20:16;98703.00;;;5.58;100.00
9474;BME280;8865;47.636;7.692;2023-04-08T06:22:42;98695.59;;;5.66;100.00
9474;BME280;8865;47.636;7.692;2023-04-08T06:25:08;98695.03;;;5.75;100.00
9474;BME280;8865;47.636;7.692;2023-04-08T06:27:34;98690.13;;;5.85;100.00
9474;BME280;8865;47.636;7.692;2023-04-08T06:30:00;98695.72;;;5.93;100.00
9474;BME280;8865;47.636;7.692;2023-04-08T06:32:26;98690.72;;;6.04;100.00
9474;BME280;8865;47.636;7.692;2023-04-08T06:34:52;98688.47;;;6.13;100.00
9474;BME280;8865;47.636;7.692;2023-04-08T06:37:18;98687.81;;;6.23;100.00
9474;BME280;8865;47.636;7.692;2023-04-08T06:39:44;98682.00;;;6.34;100.00
9474;BME280;8865;47.636;7.692;2023-04-08T06:42:10;98687.66;;;6.41;100.00
9474;BME280;8865;47.636;7.692;2023-04-08T06:44:36;98694.53;;;6.42;100.00
9474;BME280;8865;47.636;7.692;2023-04-08T06:47:02;98697.50;;;6.36;100.00
9474;BME280;8865;47.636;7.692;2023-04-08T06:49:28;98702.13;;;6.31;100.00
9474;BME280;8865;47.636;7.692;2023-04-08T06:51:55;98699.44;;;6.32;100.00
9474;BME280;8865;47.636;7.692;2023-04-08T06:54:21;98705.94;;;6.39;100.00
9474;BME280;8865;47.636;7.692;2023-04-08T06:56:47;98706.09;;;6.51;100.00
9474;BME280;8865;47.636;7.692;2023-04-08T06:59:13;98709.00;;;6.60;100.00
9474;BME280;8865;47.636;7.692;2023-04-08T07:01:39;98708.13;;;6.74;100.00
9474;BME280;8865;47.636;7.692;2023-04-08T07:04:05;98698.69;;;6.86;100.00
9474;BME280;8865;47.636;7.692;2023-04-08T07:06:31;98705.69;;;6.98;100.00
9474;BME280;8865;47.636;7.692;2023-04-08T07:08:57;98703.38;;;7.08;100.00
9474;BME280;8865;47.636;7.692;2023-04-08T07:11:23;98703.38;;;7.21;100.00
9474;BME280;8865;47.636;7.692;2023-04-08T07:13:49;98704.88;;;7.38;100.00
9474;BME280;8865;47.636;7.692;2023-04-08T07:16:15;98700.03;;;7.59;100.00
9474;BME280;8865;47.636;7.692;2023-04-08T07:18:41;98701.81;;;7.84;100.00
9474;BME280;8865;47.636;7.692;2023-04-08T07:21:08;98704.31;;;8.12;100.00
9474;BME280;8865;47.636;7.692;2023-04-08T07:23:34;98706.06;;;8.37;100.00
9474;BME280;8865;47.636;7.692;2023-04-08T07:26:04;98700.91;;;8.61;100.00
9474;BME280;8865;47.636;7.692;2023-04-08T07:28:30;98695.84;;;8.84;100.00
9474;BME280;8865;47.636;7.692;2023-04-08T07:31:16;98696.41;;;9.00;100.00
9474;BME280;8865;47.636;7.692;2023-04-08T07:33:43;98700.63;;;9.14;100.00
9474;BME280;8865;47.636;7.692;2023-04-08T07:36:10;98705.44;;;9.32;100.00
9474;BME280;8865;47.636;7.692;2023-04-08T07:38:37;98699.69;;;9.51;100.00
9474;BME280;8865;47.636;7.692;2023-04-08T07:41:04;98702.22;;;9.63;100.00
9474;BME280;8865;47.636;7.692;2023-04-08T07:43:31;98702.97;;;9.77;100.00
9474;BME280;8865;47.636;7.692;2023-04-08T07:45:59;98692.63;;;9.87;100.00
9474;BME280;8865;47.636;7.692;2023-04-08T07:48:28;98694.78;;;9.93;100.00
9474;BME280;8865;47.636;7.692;2023-04-08T07:50:54;98695.63;;;10.16;100.00
9474;BME280;8865;47.636;7.692;2023-04-08T07:53:21;98701.13;;;10.35;100.00
9474;BME280;8865;47.636;7.692;2023-04-08T07:55:48;98689.56;;;10.38;100.00
9474;BME280;8865;47.636;7.692;2023-04-08T07:58:14;98693.72;;;10.63;100.00
9474;BME280;8865;47.636;7.692;2023-04-08T08:00:40;98695.81;;;10.92;100.00
9474;BME280;8865;47.636;7.692;2023-04-08T08:03:06;98702.06;;;11.01;100.00
9474;BME280;8865;47.636;7.692;2023-04-08T08:05:32;98696.56;;;11.36;100.00
9474;BME280;8865;47.636;7.692;2023-04-08T08:07:58;98701.91;;;11.46;100.00
9474;BME280;8865;47.636;7.692;2023-04-08T08:10:24;98700.16;;;11.77;100.00
9474;BME280;8865;47.636;7.692;2023-04-08T08:12:50;98707.16;;;11.67;100.00
9474;BME280;8865;47.636;7.692;2023-04-08T08:15:16;98710.53;;;12.21;100.00
9474;BME280;8865;47.636;7.692;2023-04-08T08:17:42;98708.56;;;11.71;100.00
9474;BME280;8865;47.636;7.692;2023-04-08T08:20:08;98709.22;;;12.06;100.00
9474;BME280;8865;47.636;7.692;2023-04-08T08:22:35;98708.81;;;11.89;100.00
9474;BME280;8865;47.636;7.692;2023-04-08T08:25:01;98709.13;;;12.17;100.00
9474;BME280;8865;47.636;7.692;2023-04-08T08:27:27;98709.91;;;12.48;100.00
9474;BME280;8865;47.636;7.692;2023-04-08T08:29:53;98708.34;;;12.77;100.00
9474;BME280;8865;47.636;7.692;2023-04-08T08:32:19;98706.94;;;12.63;100.00
9474;BME280;8865;47.636;7.692;2023-04-08T08:34:45;98714.47;;;12.37;100.00
9474;BME280;8865;47.636;7.692;2023-04-08T08:37:11;98709.13;;;12.58;100.00
9474;BME280;8865;47.636;7.692;2023-04-08T08:39:37;98706.09;;;12.62;100.00
9474;BME280;8865;47.636;7.692;2023-04-08T08:42:03;98702.31;;;13.06;100.00
9474;BME280;8865;47.636;7.692;2023-04-08T08:44:29;98709.50;;;13.03;100.00
9474;BME280;8865;47.636;7.692;2023-04-08T08:46:55;98710.38;;;13.43;100.00
9474;BME280;8865;47.636;7.692;2023-04-08T08:49:21;98702.63;;;13.61;100.00
9474;BME280;8865;47.636;7.692;2023-04-08T08:51:49;98709.25;;;13.75;100.00
9474;BME280;8865;47.636;7.692;2023-04-08T08:54:15;98704.66;;;14.24;100.00
9474;BME280;8865;47.636;7.692;2023-04-08T08:56:41;98700.97;;;14.73;100.00
9474;BME280;8865;47.636;7.692;2023-04-08T08:59:08;98707.09;;;14.73;99.20
9474;BME280;8865;47.636;7.692;2023-04-08T09:01:37;98703.00;;;14.89;96.34
9474;BME280;8865;47.636;7.692;2023-04-08T09:06:46;98699.69;;;15.23;94.14
9474;BME280;8865;47.636;7.692;2023-04-08T09:09:13;98710.69;;;15.18;93.82
9474;BME280;8865;47.636;7.692;2023-04-08T09:11:41;98708.56;;;14.86;94.56
9474;BME280;8865;47.636;7.692;2023-04-08T09:14:21;98711.81;;;14.70;99.49
9474;BME280;8865;47.636;7.692;2023-04-08T09:16:47;98708.97;;;14.63;98.73
9474;BME280;8865;47.636;7.692;2023-04-08T09:19:13;98713.38;;;14.35;100.00
9474;BME280;8865;47.636;7.692;2023-04-08T09:21:40;98709.59;;;14.37;100.00
9474;BME280;8865;47.636;7.692;2023-04-08T09:24:07;98719.31;;;14.37;100.00
9474;BME280;8865;47.636;7.692;2023-04-08T09:26:34;98714.63;;;13.93;100.00
9474;BME280;8865;47.636;7.692;2023-04-08T09:29:09;98714.78;;;13.62;100.00
9474;BME280;8865;47.636;7.692;2023-04-08T09:31:37;98721.75;;;13.34;100.00
9474;BME280;8865;47.636;7.692;2023-04-08T09:34:10;98722.25;;;13.28;100.00
9474;BME280;8865;47.636;7.692;2023-04-08T09:36:37;98718.78;;;13.17;100.00
9474;BME280;8865;47.636;7.692;2023-04-08T09:39:04;98722.50;;;12.95;100.00
9474;BME280;8865;47.636;7.692;2023-04-08T09:41:33;98722.09;;;12.90;100.00
9474;BME280;8865;47.636;7.692;2023-04-08T09:44:02;98729.56;;;12.95;100.00
9474;BME280;8865;47.636;7.692;2023-04-08T09:46:39;98725.69;;;12.99;100.00
9474;BME280;8865;47.636;7.692;2023-04-08T09:49:10;98729.13;;;12.90;100.00
9474;BME280;8865;47.636;7.692;2023-04-08T09:51:49;98726.94;;;13.04;100.00
9474;BME280;8865;47.636;7.692;2023-04-08T09:54:20;98730.28;;;13.26;100.00
9474;BME280;8865;47.636;7.692;2023-04-08T09:57:00;98731.56;;;13.42;100.00
9474;BME280;8865;47.636;7.692;2023-04-08T09:59:29;98734.06;;;13.63;100.00
9474;BME280;8865;47.636;7.692;2023-04-08T10:02:00;98729.72;;;14.01;100.00
9474;BME280;8865;47.636;7.692;2023-04-08T10:04:31;98728.91;;;13.90;100.00
9474;BME280;8865;47.636;7.692;2023-04-08T10:07:03;98726.91;;;14.12;100.00
9474;BME280;8865;47.636;7.692;2023-04-08T10:09:31;98731.81;;;14.35;100.00
9474;BME280;8865;47.636;7.692;2023-04-08T10:11:58;98728.25;;;14.54;100.00
9474;BME280;8865;47.636;7.692;2023-04-08T10:14:24;98726.44;;;14.64;100.00
9474;BME280;8865;47.636;7.692;2023-04-08T10:17:27;98732.00;;;14.61;100.00
9474;BME280;8865;47.636;7.692;2023-04-08T10:19:54;98730.38;;;14.40;100.00
9474;BME280;8865;47.636;7.692;2023-04-08T10:27:43;98724.72;;;13.98;100.00
9474;BME280;8865;47.636;7.692;2023-04-08T10:32:57;98723.28;;;13.36;100.00
9474;BME280;8865;47.636;7.692;2023-04-08T10:35:36;98721.84;;;13.22;100.00
9474;BME280;8865;47.636;7.692;2023-04-08T10:38:03;98718.91;;;13.06;100.00
9474;BME280;8865;47.636;7.692;2023-04-08T10:40:34;98725.28;;;12.94;100.00
9474;BME280;8865;47.636;7.692;2023-04-08T10:43:04;98724.59;;;12.92;100.00
9474;BME280;8865;47.636;7.692;2023-04-08T10:45:33;98726.53;;;12.99;100.00
9474;BME280;8865;47.636;7.692;2023-04-08T10:50:53;98725.53;;;12.81;100.00
9474;BME280;8865;47.636;7.692;2023-04-08T10:55:54;98715.09;;;13.49;100.00
9474;BME280;8865;47.636;7.692;2023-04-08T10:58:27;98715.63;;;13.63;100.00
9474;BME280;8865;47.636;7.692;2023-04-08T11:00:54;98711.06;;;13.65;100.00
9474;BME280;8865;47.636;7.692;2023-04-08T11:03:20;98708.69;;;13.62;100.00
9474;BME280;8865;47.636;7.692;2023-04-08T11:05:47;98703.31;;;14.10;100.00
9474;BME280;8865;47.636;7.692;2023-04-08T11:08:13;98705.22;;;14.56;100.00
9474;BME280;8865;47.636;7.692;2023-04-08T11:10:39;98702.63;;;15.02;100.00
9474;BME280;8865;47.636;7.692;2023-04-08T11:13:07;98695.44;;;15.48;100.00
9474;BME280;8865;47.636;7.692;2023-04-08T11:15:37;98698.22;;;15.82;100.00
9474;BME280;8865;47.636;7.692;2023-04-08T11:18:04;98701.16;;;15.79;100.00
9474;BME280;8865;47.636;7.692;2023-04-08T11:20:31;98704.56;;;15.35;100.00
9474;BME280;8865;47.636;7.692;2023-04-08T11:22:59;98693.97;;;15.71;100.00
9474;BME280;8865;47.636;7.692;2023-04-08T11:25:26;98699.63;;;16.29;100.00
9474;BME280;8865;47.636;7.692;2023-04-08T11:27:52;98693.34;;;16.30;94.87
9474;BME280;8865;47.636;7.692;2023-04-08T11:30:19;98685.59;;;16.79;95.26
9474;BME280;8865;47.636;7.692;2023-04-08T11:32:45;98690.63;;;16.91;87.40
9474;BME280;8865;47.636;7.692;2023-04-08T11:35:11;98682.28;;;16.77;87.16
9474;BME280;8865;47.636;7.692;2023-04-08T11:37:41;98678.72;;;16.44;83.23
9474;BME280;8865;47.636;7.692;2023-04-08T11:40:11;98678.63;;;15.49;92.38
9474;BME280;8865;47.636;7.692;2023-04-08T11:42:38;98678.34;;;16.04;92.61
9474;BME280;8865;47.636;7.692;2023-04-08T11:45:11;98674.16;;;16.71;91.07
9474;BME280;8865;47.636;7.692;2023-04-08T11:47:38;98670.13;;;17.01;88.67
9474;BME280;8865;47.636;7.692;2023-04-08T11:50:04;98672.97;;;17.41;79.93
9474;BME280;8865;47.636;7.692;2023-04-08T11:52:44;98659.84;;;17.97;76.44
9474;BME280;8865;47.636;7.692;2023-04-08T11:55:11;98660.88;;;18.35;70.75
9474;BME280;8865;47.636;7.692;2023-04-08T11:57:46;98653.84;;;20.20;62.15
9474;BME280;8865;47.636;7.692;2023-04-08T12:00:13;98650.25;;;22.90;50.56
9474;BME280;8865;47.636;7.692;2023-04-08T12:02:39;98648.38;;;24.11;44.23
9474;BME280;8865;47.636;7.692;2023-04-08T12:05:06;98648.13;;;24.78;39.85
9474;BME280;8865;47.636;7.692;2023-04-08T12:07:33;98638.59;;;23.18;41.27
9474;BME280;8865;47.636;7.692;2023-04-08T12:09:59;98652.56;;;23.20;41.50
9474;BME280;8865;47.636;7.692;2023-04-08T12:12:26;98645.16;;;23.09;41.88
9474;BME280;8865;47.636;7.692;2023-04-08T12:14:52;98652.22;;;22.68;43.17
9474;BME280;8865;47.636;7.692;2023-04-08T12:17:18;98647.56;;;23.04;44.21
9474;BME280;8865;47.636;7.692;2023-04-08T12:19:44;98650.00;;;22.78;44.35
9474;BME280;8865;47.636;7.692;2023-04-08T12:22:10;98644.00;;;22.15;43.86
9474;BME280;8865;47.636;7.692;2023-04-08T12:24:36;98644.81;;;21.30;44.80
9474;BME280;8865;47.636;7.692;2023-04-08T12:27:03;98651.41;;;20.91;48.03
9474;BME280;8865;47.636;7.692;2023-04-08T12:29:30;98657.19;;;20.43;50.28
9474;BME280;8865;47.636;7.692;2023-04-08T12:31:56;98664.00;;;19.86;52.09
9474;BME280;8865;47.636;7.692;2023-04-08T12:34:23;98649.97;;;19.16;53.05
9474;BME280;8865;47.636;7.692;2023-04-08T12:36:49;98658.06;;;18.37;56.96
9474;BME280;8865;47.636;7.692;2023-04-08T12:39:15;98645.28;;;17.76;63.46
9474;BME280;8865;47.636;7.692;2023-04-08T12:41:41;98652.28;;;17.28;66.04
9474;BME280;8865;47.636;7.692;2023-04-08T12:44:08;98645.50;;;16.92;69.88
9474;BME280;8865;47.636;7.692;2023-04-08T12:46:35;98646.25;;;16.76;73.62
9474;BME280;8865;47.636;7.692;2023-04-08T12:49:01;98654.13;;;16.60;79.92
9474;BME280;8865;47.636;7.692;2023-04-08T12:51:27;98645.31;;;16.43;81.46
9474;BME280;8865;47.636;7.692;2023-04-08T12:53:54;98654.53;;;16.31;82.15
9474;BME280;8865;47.636;7.692;2023-04-08T12:56:20;98645.63;;;16.32;85.06
9474;BME280;8865;47.636;7.692;2023-04-08T12:58:46;98640.56;;;16.47;86.42
9474;BME280;8865;47.636;7.692;2023-04-08T13:01:12;98636.84;;;17.73;78.42
9474;BME280;8865;47.636;7.692;2023-04-08T13:03:38;98637.56;;;20.44;58.81
9474;BME280;8865;47.636;7.692;2023-04-08T13:06:04;98631.81;;;22.05;50.11
9474;BME280;8865;47.636;7.692;2023-04-08T13:08:30;98629.00;;;22.14;48.80
9474;BME280;8865;47.636;7.692;2023-04-08T13:10:56;98635.72;;;22.44;47.55
9474;BME280;8865;47.636;7.692;2023-04-08T13:13:22;98624.00;;;23.61;44.72
9474;BME280;8865;47.636;7.692;2023-04-08T13:15:48;98621.41;;;25.28;40.24
9474;BME280;8865;47.636;7.692;2023-04-08T13:18:14;98623.19;;;27.01;38.52
9474;BME280;8865;47.636;7.692;2023-04-08T13:20:40;98617.38;;;27.16;33.91
9474;BME280;8865;47.636;7.692;2023-04-08T13:23:06;98621.53;;;25.65;36.07
9474;BME280;8865;47.636;7.692;2023-04-08T13:25:32;98625.38;;;23.83;38.59
9474;BME280;8865;47.636;7.692;2023-04-08T13:27:58;98621.97;;;22.06;42.03
9474;BME280;8865;47.636;7.692;2023-04-08T13:30:24;98623.00;;;20.62;46.39
9474;BME280;8865;47.636;7.692;2023-04-08T13:32:50;98624.41;;;19.38;49.93
9474;BME280;8865;47.636;7.692;2023-04-08T13:35:16;98634.13;;;18.45;57.02
9474;BME280;8865;47.636;7.692;2023-04-08T13:37:42;98630.94;;;17.54;61.55
9474;BME280;8865;47.636;7.692;2023-04-08T13:40:08;98624.97;;;16.86;67.76
9474;BME280;8865;47.636;7.692;2023-04-08T13:42:34;98632.97;;;16.09;70.73
9474;BME280;8865;47.636;7.692;2023-04-08T13:45:00;98634.66;;;15.40;75.12
9474;BME280;8865;47.636;7.692;2023-04-08T13:47:26;98634.03;;;15.20;84.84
9474;BME280;8865;47.636;7.692;2023-04-08T13:49:52;98633.81;;;14.95;87.95
9474;BME280;8865;47.636;7.692;2023-04-08T13:52:18;98635.72;;;14.57;91.08
9474;BME280;8865;47.636;7.692;2023-04-08T13:54:44;98638.28;;;14.39;95.81
9474;BME280;8865;47.636;7.692;2023-04-08T13:57:11;98633.16;;;14.37;100.00
9474;BME280;8865;47.636;7.692;2023-04-08T13:59:37;98632.34;;;14.37;98.76
9474;BME280;8865;47.636;7.692;2023-04-08T14:02:03;98631.38;;;14.38;97.97
9474;BME280;8865;47.636;7.692;2023-04-08T14:04:29;98632.59;;;14.43;98.70
9474;BME280;8865;47.636;7.692;2023-04-08T14:06:55;98633.81;;;14.49;98.02
9474;BME280;8865;47.636;7.692;2023-04-08T14:09:22;98631.03;;;14.51;94.85
9474;BME280;8865;47.636;7.692;2023-04-08T14:11:49;98629.75;;;14.55;95.00
9474;BME280;8865;47.636;7.692;2023-04-08T14:14:15;98630.50;;;14.47;93.67
9474;BME280;8865;47.636;7.692;2023-04-08T14:16:41;98632.72;;;14.70;96.01
9474;BME280;8865;47.636;7.692;2023-04-08T14:19:07;98621.13;;;15.16;95.21
9474;BME280;8865;47.636;7.692;2023-04-08T14:21:33;98621.16;;;15.95;89.86
9474;BME280;8865;47.636;7.692;2023-04-08T14:24:00;98624.56;;;16.14;83.46
9474;BME280;8865;47.636;7.692;2023-04-08T14:26:26;98628.97;;;16.39;82.76
9474;BME280;8865;47.636;7.692;2023-04-08T14:28:52;98620.44;;;16.62;78.79
9474;BME280;8865;47.636;7.692;2023-04-08T14:31:18;98620.19;;;17.06;75.70
9474;BME280;8865;47.636;7.692;2023-04-08T14:33:44;98616.69;;;17.47;69.87
9474;BME280;8865;47.636;7.692;2023-04-08T14:36:11;98615.44;;;17.82;65.04
9474;BME280;8865;47.636;7.692;2023-04-08T14:38:38;98614.47;;;18.00;63.27
9474;BME280;8865;47.636;7.692;2023-04-08T14:41:04;98617.13;;;17.92;60.50
9474;BME280;8865;47.636;7.692;2023-04-08T14:43:31;98611.50;;;17.70;59.87
9474;BME280;8865;47.636;7.692;2023-04-08T14:45:56;98608.56;;;17.48;61.30
9474;BME280;8865;47.636;7.692;2023-04-08T14:48:22;98612.25;;;17.14;63.52
9474;BME280;8865;47.636;7.692;2023-04-08T14:50:51;98619.69;;;16.94;63.41
9474;BME280;8865;47.636;7.692;2023-04-08T14:53:17;98617.47;;;16.73;64.83
9474;BME280;8865;47.636;7.692;2023-04-08T14:55:43;98616.59;;;16.56;63.86
9474;BME280;8865;47.636;7.692;2023-04-08T14:58:09;98620.03;;;16.40;67.31
9474;BME280;8865;47.636;7.692;2023-04-08T15:00:35;98623.09;;;16.11;76.92
9474;BME280;8865;47.636;7.692;2023-04-08T15:03:02;98620.81;;;15.90;76.91
9474;BME280;8865;47.636;7.692;2023-04-08T15:05:28;98625.72;;;15.59;70.22
9474;BME280;8865;47.636;7.692;2023-04-08T15:07:54;98621.63;;;15.38;71.73
9474;BME280;8865;47.636;7.692;2023-04-08T15:10:20;98614.72;;;15.19;77.19
9474;BME280;8865;47.636;7.692;2023-04-08T15:12:46;98617.28;;;15.11;70.73
9474;BME280;8865;47.636;7.692;2023-04-08T15:15:12;98619.34;;;14.99;72.40
9474;BME280;8865;47.636;7.692;2023-04-08T15:17:38;98622.81;;;14.81;70.98
9474;BME280;8865;47.636;7.692;2023-04-08T15:20:05;98622.44;;;14.76;69.24
9474;BME280;8865;47.636;7.692;2023-04-08T15:22:31;98620.31;;;14.80;67.46
9474;BME280;8865;47.636;7.692;2023-04-08T15:24:57;98617.31;;;14.75;70.26
9474;BME280;8865;47.636;7.692;2023-04-08T15:27:23;98618.22;;;14.84;75.18
9474;BME280;8865;47.636;7.692;2023-04-08T15:29:49;98625.69;;;14.88;78.19
9474;BME280;8865;47.636;7.692;2023-04-08T15:32:15;98631.31;;;14.93;77.01
9474;BME280;8865;47.636;7.692;2023-04-08T15:34:41;98620.47;;;14.96;82.76
9474;BME280;8865;47.636;7.692;2023-04-08T15:37:07;98628.69;;;14.93;80.99
9474;BME280;8865;47.636;7.692;2023-04-08T15:39:33;98622.13;;;14.97;82.09
9474;BME280;8865;47.636;7.692;2023-04-08T15:41:59;98627.13;;;15.00;86.50
9474;BME280;8865;47.636;7.692;2023-04-08T15:44:29;98619.09;;;14.92;86.38
9474;BME280;8865;47.636;7.692;2023-04-08T15:46:56;98626.50;;;14.89;83.56
9474;BME280;8865;47.636;7.692;2023-04-08T15:49:22;98621.00;;;14.82;89.52
9474;BME280;8865;47.636;7.692;2023-04-08T15:51:48;98625.75;;;14.78;89.55
9474;BME280;8865;47.636;7.692;2023-04-08T15:54:16;98626.13;;;14.66;85.80
9474;BME280;8865;47.636;7.692;2023-04-08T15:56:42;98627.13;;;14.55;90.61
9474;BME280;8865;47.636;7.692;2023-04-08T15:59:10;98625.91;;;14.49;94.41
9474;BME280;8865;47.636;7.692;2023-04-08T16:01:35;98626.50;;;14.43;93.08
9474;BME280;8865;47.636;7.692;2023-04-08T16:04:02;98632.94;;;14.31;94.89
9474;BME280;8865;47.636;7.692;2023-04-08T16:06:27;98627.16;;;14.27;100.00
9474;BME280;8865;47.636;7.692;2023-04-08T16:08:54;98633.81;;;14.21;100.00
9474;BME280;8865;47.636;7.692;2023-04-08T16:11:21;98638.84;;;14.15;100.00
9474;BME280;8865;47.636;7.692;2023-04-08T16:13:48;98647.34;;;14.08;100.00
9474;BME280;8865;47.636;7.692;2023-04-08T16:16:14;98641.19;;;13.90;99.80
9474;BME280;8865;47.636;7.692;2023-04-08T16:18:40;98643.72;;;13.72;99.37
9474;BME280;8865;47.636;7.692;2023-04-08T16:21:07;98650.53;;;13.45;100.00
9474;BME280;8865;47.636;7.692;2023-04-08T16:23:34;98653.19;;;13.35;100.00
9474;BME280;8865;47.636;7.692;2023-04-08T16:26:04;98659.13;;;13.28;100.00
9474;BME280;8865;47.636;7.692;2023-04-08T16:28:33;98657.72;;;13.23;100.00
9474;BME280;8865;47.636;7.692;2023-04-08T16:30:59;98659.13;;;13.08;100.00
9474;BME280;8865;47.636;7.692;2023-04-08T16:33:25;98662.59;;;13.09;100.00
9474;BME280;8865;47.636;7.692;2023-04-08T16:35:55;98659.25;;;12.97;100.00
9474;BME280;8865;47.636;7.692;2023-04-08T16:38:23;98668.09;;;12.96;100.00
9474;BME280;8865;47.636;7.692;2023-04-08T16:40:50;98665.06;;;12.91;100.00
9474;BME280;8865;47.636;7.692;2023-04-08T16:43:16;98667.41;;;12.74;100.00
9474;BME280;8865;47.636;7.692;2023-04-08T16:45:42;98672.66;;;12.64;100.00
9474;BME280;8865;47.636;7.692;2023-04-08T16:48:08;98675.41;;;12.73;100.00
9474;BME280;8865;47.636;7.692;2023-04-08T16:50:38;98673.22;;;12.78;100.00
9474;BME280;8865;47.636;7.692;2023-04-08T16:53:04;98673.63;;;12.73;100.00
9474;BME280;8865;47.636;7.692;2023-04-08T16:55:34;98683.16;;;12.74;100.00
9474;BME280;8865;47.636;7.692;2023-04-08T16:58:01;98678.34;;;12.79;100.00
9474;BME280;8865;47.636;7.692;2023-04-08T17:00:28;98676.69;;;12.78;100.00
9474;BME280;8865;47.636;7.692;2023-04-08T17:02:55;98681.25;;;12.76;100.00
9474;BME280;8865;47.636;7.692;2023-04-08T17:05:25;98682.47;;;12.72;100.00
9474;BME280;8865;47.636;7.692;2023-04-08T17:07:52;98686.78;;;12.73;100.00
9474;BME280;8865;47.636;7.692;2023-04-08T17:10:18;98679.44;;;12.67;100.00
9474;BME280;8865;47.636;7.692;2023-04-08T17:12:45;98687.81;;;12.61;100.00
9474;BME280;8865;47.636;7.692;2023-04-08T17:15:11;98694.75;;;12.62;100.00
9474;BME280;8865;47.636;7.692;2023-04-08T17:17:37;98693.09;;;12.61;100.00
9474;BME280;8865;47.636;7.692;2023-04-08T17:20:04;98690.72;;;12.58;100.00
9474;BME280;8865;47.636;7.692;2023-04-08T17:22:30;98704.84;;;12.57;100.00
9474;BME280;8865;47.636;7.692;2023-04-08T17:24:56;98701.78;;;12.51;100.00
9474;BME280;8865;47.636;7.692;2023-04-08T17:27:22;98708.28;;;12.47;100.00
9474;BME280;8865;47.636;7.692;2023-04-08T17:29:48;98707.00;;;12.42;100.00
9474;BME280;8865;47.636;7.692;2023-04-08T17:32:14;98716.81;;;12.40;100.00
9474;BME280;8865;47.636;7.692;2023-04-08T17:34:40;98710.97;;;12.36;100.00
9474;BME280;8865;47.636;7.692;2023-04-08T17:37:06;98707.38;;;12.27;100.00
9474;BME280;8865;47.636;7.692;2023-04-08T17:39:34;98718.72;;;12.28;100.00
9474;BME280;8865;47.636;7.692;2023-04-08T17:42:06;98717.56;;;12.21;100.00